Time;durP1;ratioP1;P1;durP2;ratioP2;P2;SDS_P1;SDS_P2;PMS_P1;PMS_P2;Temp;Humidity;BMP_temperature;BMP_pressure;BME280_temperature;BME280_humidity;BME280_pressure;Samples;Min_cycle;Max_cycle;Signal;HPM_P1;HPM_P2
2021/12/14 00:01:23;;;;;;;34.72;18.90;;;;;;;-145.18;100.00;47480.88;5046589;28;20720;-71
2021/12/14 00:03:53;;;;;;;32.53;19.43;;;;;;;-145.18;100.00;47473.06;5046286;28;20049;-71
2021/12/14 00:06:20;;;;;;;32.30;19.83;;;;;;;-145.18;100.00;47478.94;5046385;28;20365;-71
2021/12/14 00:08:56;;;;;;;31.93;19.07;;;;;;;-145.18;100.00;47463.31;5046437;28;20281;-71
2021/12/14 00:16:43;;;;;;;35.27;20.80;;;;;;;-145.18;100.00;47476.97;5046416;28;20370;-71
2021/12/14 00:19:09;;;;;;;36.20;20.97;;;;;;;-145.18;100.00;47467.22;5046219;28;20270;-71
2021/12/14 00:21:35;;;;;;;35.37;19.33;;;;;;;-145.18;100.00;47484.78;5046617;28;20812;-71
2021/12/14 00:24:06;;;;;;;33.57;18.50;;;;;;;-145.18;100.00;47455.47;5046038;28;20128;-71
2021/12/14 00:26:37;;;;;;;34.37;20.50;;;;;;;-145.18;100.00;47482.84;5045989;28;20045;-71
2021/12/14 00:29:04;;;;;;;38.40;19.93;;;;;;;-145.18;100.00;47455.47;5046092;28;20294;-71
2021/12/14 00:31:30;;;;;;;31.47;19.87;;;;;;;-145.18;100.00;47461.34;5046527;28;20325;-70
2021/12/14 00:33:59;;;;;;;35.77;20.60;;;;;;;-145.18;100.00;47482.84;5046993;28;20305;-71
2021/12/14 00:36:25;;;;;;;32.20;19.70;;;;;;;-145.18;100.00;47465.25;5050024;28;20041;-71
2021/12/14 00:38:56;;;;;;;32.80;20.43;;;;;;;-145.18;100.00;47484.78;5050373;28;20278;-71
2021/12/14 00:41:30;;;;;;;35.10;21.07;;;;;;;-145.18;100.00;47496.50;5049880;28;20410;-71
2021/12/14 00:43:57;;;;;;;32.50;20.23;;;;;;;-145.18;100.00;47486.75;5049694;28;20270;-71
2021/12/14 00:46:24;;;;;;;34.77;21.17;;;;;;;-145.18;100.00;47492.59;5049416;28;20357;-71
2021/12/14 00:48:50;;;;;;;36.53;21.17;;;;;;;-145.18;100.00;47478.94;5049642;28;20266;-71
2021/12/14 00:51:21;;;;;;;32.23;21.30;;;;;;;-145.18;100.00;47476.97;5049502;28;20258;-71
2021/12/14 00:53:46;;;;;;;37.07;21.53;;;;;;;-145.18;100.00;47478.94;5049336;28;20277;-71
2021/12/14 00:56:12;;;;;;;34.20;21.87;;;;;;;-145.18;100.00;47480.88;5049461;28;20302;-71
2021/12/14 00:58:38;;;;;;;37.90;22.40;;;;;;;-145.18;100.00;47492.59;5049215;28;20093;-71
2021/12/14 01:01:13;;;;;;;41.03;23.40;;;;;;;-145.18;100.00;47500.41;5049450;28;20472;-71
2021/12/14 01:03:43;;;;;;;34.03;20.87;;;;;;;-145.18;100.00;47476.97;5049582;28;20635;-72
2021/12/14 01:06:11;;;;;;;37.57;21.87;;;;;;;-145.18;100.00;47476.97;5049005;28;20779;-71
2021/12/14 01:08:39;;;;;;;38.73;22.17;;;;;;;-145.18;100.00;47469.16;5049273;28;21097;-71
2021/12/14 01:11:34;;;;;;;36.43;21.70;;;;;;;-145.18;100.00;47494.56;5048947;28;20278;-71
2021/12/14 01:14:10;;;;;;;47.23;22.83;;;;;;;-145.18;100.00;47488.69;5049159;28;20289;-71
2021/12/14 01:17:07;;;;;;;37.20;22.37;;;;;;;-145.18;100.00;47480.88;5049107;28;20305;-71
2021/12/14 01:19:35;;;;;;;36.43;21.67;;;;;;;-145.18;100.00;47480.88;5049203;28;20262;-71
2021/12/14 01:22:31;;;;;;;39.77;22.80;;;;;;;-145.18;100.00;47502.38;5048810;28;20298;-71
2021/12/14 01:25:06;;;;;;;37.90;22.53;;;;;;;-145.18;100.00;47476.97;5049053;28;20370;-71
2021/12/14 01:27:43;;;;;;;36.28;22.70;;;;;;;-145.18;100.00;47488.69;5048431;28;20694;-71
2021/12/14 01:30:18;;;;;;;39.83;21.50;;;;;;;-145.18;100.00;47498.47;5049191;28;20057;-71
2021/12/14 01:32:47;;;;;;;35.42;21.58;;;;;;;-145.18;100.00;47469.16;5048584;28;20270;-71
2021/12/14 01:35:14;;;;;;;35.03;20.93;;;;;;;-145.18;100.00;47490.66;5048879;28;20158;-71
2021/12/14 01:37:48;;;;;;;37.93;21.77;;;;;;;-145.18;100.00;47471.13;5048786;28;20256;-71
2021/12/14 01:40:29;;;;;;;37.17;21.67;;;;;;;-145.18;100.00;47461.34;5048333;28;20349;-71
2021/12/14 01:42:54;;;;;;;36.50;21.90;;;;;;;-145.18;100.00;47486.75;5048615;28;20286;-71
2021/12/14 01:45:22;;;;;;;37.90;21.50;;;;;;;-145.18;100.00;47469.16;5048194;28;20353;-71
2021/12/14 01:47:53;;;;;;;38.20;21.20;;;;;;;-145.18;100.00;47484.78;5048691;28;20032;-71
2021/12/14 01:50:42;;;;;;;36.20;20.77;;;;;;;-145.18;100.00;47490.66;5048384;28;20282;-71
2021/12/14 01:53:08;;;;;;;36.53;20.50;;;;;;;-145.18;100.00;47492.59;5047924;28;20344;-71
2021/12/14 01:55:37;;;;;;;38.30;21.23;;;;;;;-145.18;100.00;47500.41;5047956;28;20278;-71
2021/12/14 01:58:06;;;;;;;42.47;21.70;;;;;;;-145.18;100.00;47494.56;5048162;28;20285;-71
2021/12/14 02:00:56;;;;;;;35.97;20.87;;;;;;;-145.18;100.00;47500.41;5048139;28;20369;-71
2021/12/14 02:03:31;;;;;;;35.60;21.97;;;;;;;-145.18;100.00;47504.31;5048380;28;20293;-71
2021/12/14 02:05:57;;;;;;;37.67;22.40;;;;;;;-145.18;100.00;47488.69;5046700;28;20670;-71
2021/12/14 02:08:28;;;;;;;35.80;20.90;;;;;;;-145.18;100.00;47506.28;5047479;28;20254;-71
2021/12/14 02:10:57;;;;;;;39.73;22.37;;;;;;;-145.18;100.00;47488.69;5047701;28;20045;-71
2021/12/14 02:13:29;;;;;;;38.07;22.10;;;;;;;-145.18;100.00;47484.78;5048199;28;20373;-71
2021/12/14 02:15:56;;;;;;;36.53;21.30;;;;;;;-145.18;100.00;47492.59;5047688;28;21073;-71
2021/12/14 02:18:24;;;;;;;36.73;21.10;;;;;;;-145.18;100.00;47484.78;5082347;28;20268;-71
2021/12/14 02:20:55;;;;;;;38.10;21.73;;;;;;;-145.18;100.00;47486.75;5088102;28;20629;-71
2021/12/14 02:23:21;;;;;;;39.77;22.73;;;;;;;-145.18;100.00;47494.56;5087952;28;20283;-72
2021/12/14 02:25:49;;;;;;;39.33;21.77;;;;;;;-145.18;100.00;47478.94;5087757;28;20273;-72
2021/12/14 02:28:18;;;;;;;39.77;22.90;;;;;;;-145.18;100.00;47486.75;5087607;28;20407;-71
2021/12/14 02:30:46;;;;;;;35.80;21.73;;;;;;;-145.18;100.00;47484.78;5087632;28;20272;-72
2021/12/14 02:33:34;;;;;;;38.00;22.77;;;;;;;-145.18;100.00;47473.06;5088004;28;20427;-71
2021/12/14 02:36:05;;;;;;;37.30;22.00;;;;;;;-145.18;100.00;47482.84;5087403;28;20405;-71
2021/12/14 02:38:31;;;;;;;38.10;22.67;;;;;;;-145.18;100.00;47490.66;5088080;28;20740;-71
2021/12/14 02:41:05;;;;;;;37.37;24.03;;;;;;;-145.18;100.00;47488.69;5087645;28;20272;-71
2021/12/14 02:43:33;;;;;;;38.70;22.27;;;;;;;-145.18;100.00;47488.69;5087694;28;20040;-71
2021/12/14 02:46:09;;;;;;;36.30;22.37;;;;;;;-145.18;100.00;47490.66;5087476;28;20277;-70
2021/12/14 02:48:35;;;;;;;;;;;;;;;-145.18;100.00;47508.22;5087959;28;20287;-71
2021/12/14 02:51:14;;;;;;;39.78;23.05;;;;;;;-145.18;100.00;47486.75;5087523;28;19923;-71
2021/12/14 02:53:40;;;;;;;34.50;22.00;;;;;;;-145.18;100.00;47502.38;5087757;28;20101;-70
2021/12/14 02:56:16;;;;;;;37.87;23.00;;;;;;;-145.18;100.00;47498.47;5086676;28;20357;-71
2021/12/14 02:58:43;;;;;;;38.63;20.93;;;;;;;-145.18;100.00;47486.75;5087457;28;20253;-71
2021/12/14 03:01:11;;;;;;;37.63;22.47;;;;;;;-145.18;100.00;47482.84;5087381;28;20769;-70
2021/12/14 03:03:37;;;;;;;34.90;21.97;;;;;;;-145.18;100.00;47490.66;5087412;28;20253;-71
2021/12/14 03:06:05;;;;;;;36.00;21.73;;;;;;;-145.18;100.00;47482.84;5087092;28;20308;-70
2021/12/14 03:08:37;;;;;;;40.23;22.30;;;;;;;-145.18;100.00;47486.75;5087328;28;20101;-70
2021/12/14 03:11:11;;;;;;;37.80;22.17;;;;;;;-145.18;100.00;47492.59;5087319;28;20800;-71
2021/12/14 03:13:44;;;;;;;34.50;20.73;;;;;;;-145.18;100.00;47473.06;5087328;28;20276;-71
2021/12/14 03:16:16;;;;;;;36.23;21.13;;;;;;;-145.18;100.00;47471.13;5086912;28;20312;-71
2021/12/14 03:18:47;;;;;;;32.97;20.83;;;;;;;-145.18;100.00;47514.09;5087269;28;20788;-71
2021/12/14 03:21:21;;;;;;;32.17;20.03;;;;;;;-145.18;100.00;47508.22;5087261;28;20277;-71
2021/12/14 03:23:54;;;;;;;33.80;19.60;;;;;;;-145.18;100.00;47506.28;5087174;28;20268;-71
2021/12/14 03:26:24;;;;;;;34.20;20.27;;;;;;;-145.18;100.00;47508.22;5087109;28;20280;-71
2021/12/14 03:28:53;;;;;;;32.63;18.37;;;;;;;-145.18;100.00;47504.31;5086660;28;20276;-71
2021/12/14 03:31:37;;;;;;;31.70;19.50;;;;;;;-145.18;100.00;47490.66;5087161;28;20287;-71
2021/12/14 03:34:27;;;;;;;32.53;19.33;;;;;;;-145.18;100.00;47496.50;5087114;28;20360;-71
2021/12/14 03:36:57;;;;;;;32.37;18.90;;;;;;;-145.18;100.00;47482.84;5086961;28;20267;-71
2021/12/14 03:39:28;;;;;;;34.93;19.73;;;;;;;-145.18;100.00;47504.31;5087130;28;20299;-71
2021/12/14 03:42:00;;;;;;;32.87;18.53;;;;;;;-145.18;100.00;47488.69;5086628;28;20276;-72
2021/12/14 03:44:32;;;;;;;37.17;19.07;;;;;;;-145.18;100.00;47480.88;5087235;28;20280;-70
2021/12/14 03:47:14;;;;;;;30.23;18.83;;;;;;;-145.18;100.00;47498.47;5086669;28;20269;-71
2021/12/14 03:49:49;;;;;;;32.20;18.47;;;;;;;-145.18;100.00;47490.66;5087149;28;20277;-70
2021/12/14 03:52:19;;;;;;;29.10;18.15;;;;;;;-145.18;100.00;47490.66;5087240;28;20292;-70
2021/12/14 03:54:45;;;;;;;30.87;19.30;;;;;;;-145.18;100.00;47482.84;5086762;28;20040;-71
2021/12/14 03:57:11;;;;;;;31.40;17.37;;;;;;;-145.18;100.00;47496.50;5086756;28;20325;-71
2021/12/14 03:59:38;;;;;;;27.83;16.77;;;;;;;-145.18;100.00;47500.41;5086856;28;20519;-71
2021/12/14 04:02:07;;;;;;;28.03;17.70;;;;;;;-145.18;100.00;47504.31;5086545;28;20269;-71
2021/12/14 04:04:50;;;;;;;29.90;17.40;;;;;;;-145.18;100.00;47476.97;5086637;28;20300;-71
2021/12/14 04:07:16;;;;;;;31.47;18.03;;;;;;;-145.18;100.00;47490.66;5086619;28;20646;-70
2021/12/14 04:09:43;;;;;;;29.97;17.20;;;;;;;-145.18;100.00;47496.50;5089166;28;20295;-71
2021/12/14 04:12:13;;;;;;;29.37;17.10;;;;;;;-145.18;100.00;47506.28;5090542;28;20277;-71
2021/12/14 04:14:48;;;;;;;27.60;17.53;;;;;;;-145.18;100.00;47476.97;5090726;28;20261;-69
2021/12/14 04:17:14;;;;;;;30.60;17.57;;;;;;;-145.18;100.00;47490.66;5090821;28;20276;-71
2021/12/14 04:19:41;;;;;;;27.00;17.20;;;;;;;-145.18;100.00;47496.50;5090621;28;20300;-71
2021/12/14 04:22:16;;;;;;;27.73;18.07;;;;;;;-145.18;100.00;47490.66;5090225;28;20633;-71
2021/12/14 04:24:44;;;;;;;27.48;15.82;;;;;;;-145.18;100.00;47504.31;5090400;28;20300;-73
2021/12/14 04:27:19;;;;;;;28.97;17.07;;;;;;;-145.18;100.00;47488.69;5090190;28;20036;-71
2021/12/14 04:29:45;;;;;;;27.60;17.33;;;;;;;-145.18;100.00;47500.41;5090479;28;20338;-71
2021/12/14 04:32:13;;;;;;;28.17;15.17;;;;;;;-145.18;100.00;47523.88;5088720;28;20052;-71
2021/12/14 04:34:41;;;;;;;29.87;17.00;;;;;;;-145.18;100.00;47500.41;5090445;28;20307;-71
2021/12/14 04:37:07;;;;;;;29.43;18.30;;;;;;;-145.18;100.00;47494.56;5090129;28;20269;-71
2021/12/14 04:39:40;;;;;;;28.10;17.80;;;;;;;-145.18;100.00;47488.69;5090020;28;20288;-71
2021/12/14 04:53:52;;;;;;;27.60;17.10;;;;;;;-145.18;100.00;47492.59;5090127;28;20625;-71
2021/12/14 04:56:22;;;;;;;30.27;17.70;;;;;;;-145.18;100.00;47518.00;5090107;28;20297;-71
2021/12/14 04:59:05;;;;;;;26.50;16.33;;;;;;;-145.18;100.00;47490.66;5090034;28;20273;-70
2021/12/14 05:01:34;;;;;;;29.07;17.73;;;;;;;-145.18;100.00;47502.38;5089952;28;20273;-70
2021/12/14 05:04:08;;;;;;;32.27;18.27;;;;;;;-145.18;100.00;47498.47;5089532;28;20822;-71
2021/12/14 05:09:35;;;;;;;28.38;17.35;;;;;;;-145.18;100.00;47498.47;5073341;28;20780;-71
2021/12/14 05:12:12;;;;;;;31.07;18.20;;;;;;;-145.18;100.00;47498.47;5088978;28;20043;-70
2021/12/14 05:14:40;;;;;;;30.27;17.83;;;;;;;-145.18;100.00;47500.41;5089512;28;20283;-71
2021/12/14 05:17:09;;;;;;;29.47;17.03;;;;;;;-145.18;100.00;47492.59;5058290;28;20750;-71
2021/12/14 05:19:41;;;;;;;30.27;17.23;;;;;;;-145.18;100.00;47496.50;5057858;28;20290;-71
2021/12/14 05:22:23;;;;;;;30.17;17.20;;;;;;;-145.18;100.00;47494.56;5060499;28;20274;-70
2021/12/14 05:24:52;;;;;;;29.57;17.03;;;;;;;-145.18;100.00;47492.59;5054881;28;20262;-70
2021/12/14 05:27:27;;;;;;;29.33;16.90;;;;;;;-145.18;100.00;47516.06;5062248;28;20289;-70
2021/12/14 05:29:53;;;;;;;27.20;16.53;;;;;;;-145.18;100.00;47496.50;5068877;28;20277;-70
2021/12/14 05:32:18;;;;;;;32.97;17.23;;;;;;;-145.18;100.00;47496.50;5068713;28;20287;-70
2021/12/14 05:34:49;;;;;;;31.37;17.53;;;;;;;-145.18;100.00;47486.75;5068818;28;20060;-71
2021/12/14 05:37:19;;;;;;;28.00;16.50;;;;;;;-145.18;100.00;47492.59;5068868;28;20098;-70
2021/12/14 05:39:51;;;;;;;32.30;16.87;;;;;;;-145.18;100.00;47498.47;5068705;28;20272;-71
2021/12/14 05:45:10;;;;;;;34.47;16.93;;;;;;;-145.18;100.00;47486.75;5053153;28;20276;-72
2021/12/14 05:47:42;;;;;;;30.93;16.63;;;;;;;-145.18;100.00;47490.66;5065110;28;20304;-71
2021/12/14 05:50:08;;;;;;;31.40;17.23;;;;;;;-145.18;100.00;47490.66;5064739;28;20266;-71
2021/12/14 05:52:33;;;;;;;32.63;18.07;;;;;;;-145.18;100.00;47478.94;5055039;28;20282;-71
2021/12/14 05:54:59;;;;;;;29.13;17.53;;;;;;;-145.18;100.00;47502.38;5062938;28;20040;-71
2021/12/14 05:57:27;;;;;;;29.53;17.37;;;;;;;-145.18;100.00;47504.31;5067886;28;20037;-71
2021/12/14 05:59:53;;;;;;;27.90;16.80;;;;;;;-145.18;100.00;47498.47;5068530;28;20309;-71
2021/12/14 06:02:19;;;;;;;35.00;18.20;;;;;;;-145.18;100.00;47484.78;5068214;28;20258;-71
2021/12/14 06:04:51;;;;;;;31.87;18.83;;;;;;;-145.18;100.00;47502.38;5068907;28;20778;-71
2021/12/14 06:07:17;;;;;;;33.00;17.23;;;;;;;-145.18;100.00;47500.41;5068205;28;20048;-71
2021/12/14 06:09:46;;;;;;;31.53;18.07;;;;;;;-145.18;100.00;47500.41;5068038;28;20347;-71
2021/12/14 06:12:19;;;;;;;31.80;18.20;;;;;;;-145.18;100.00;47488.69;5067703;28;20353;-71
2021/12/14 06:14:54;;;;;;;34.73;19.23;;;;;;;-145.18;100.00;47486.75;5067973;28;20261;-71
2021/12/14 06:17:29;;;;;;;33.08;17.70;;;;;;;-145.18;100.00;47504.31;5067961;28;20277;-71
2021/12/14 06:20:01;;;;;;;36.40;17.87;;;;;;;-145.18;100.00;47500.41;5067648;28;20041;-71
2021/12/14 06:22:26;;;;;;;33.50;18.70;;;;;;;-145.18;100.00;47504.31;5065029;28;20280;-71
2021/12/14 06:24:57;;;;;;;31.93;16.10;;;;;;;-145.18;100.00;47504.31;5059043;28;20301;-71
2021/12/14 06:27:27;;;;;;;36.53;18.17;;;;;;;-145.18;100.00;47492.59;5066383;28;20622;-71
2021/12/14 06:30:00;;;;;;;35.80;19.93;;;;;;;-145.18;100.00;47518.00;5066268;28;20852;-71
2021/12/14 06:32:33;;;;;;;29.27;17.47;;;;;;;-145.18;100.00;47494.56;5057353;28;20290;-71
2021/12/14 06:35:05;;;;;;;32.63;18.40;;;;;;;-145.18;100.00;47484.78;5047379;28;20277;-71
2021/12/14 06:40:21;;;;;;;33.47;18.63;;;;;;;-145.18;100.00;47494.56;5066632;28;20272;-71
2021/12/14 06:43:00;;;;;;;30.70;18.37;;;;;;;-145.18;100.00;47504.31;5067511;28;20253;-71
2021/12/14 06:45:39;;;;;;;34.93;19.23;;;;;;;-145.18;100.00;47514.09;5066871;28;20754;-71
2021/12/14 06:48:12;;;;;;;35.00;17.83;;;;;;;-145.18;100.00;47496.50;5066998;28;20941;-71
2021/12/14 06:50:45;;;;;;;35.83;19.07;;;;;;;-145.18;100.00;47496.50;5066783;28;20282;-71
2021/12/14 06:53:14;;;;;;;32.73;19.20;;;;;;;-145.18;100.00;47496.50;5061513;28;20460;-71
2021/12/14 06:55:40;;;;;;;31.17;18.03;;;;;;;-145.18;100.00;47502.38;5056595;28;20274;-71
2021/12/14 06:58:15;;;;;;;35.13;18.93;;;;;;;-145.18;100.00;47519.97;5061401;28;20358;-71
2021/12/14 07:00:47;;;;;;;33.10;18.60;;;;;;;-145.18;100.00;47500.41;5060157;28;20060;-71
2021/12/14 07:03:13;;;;;;;36.27;18.97;;;;;;;-145.18;100.00;47496.50;5053497;28;20288;-71
2021/12/14 07:05:41;;;;;;;35.97;19.37;;;;;;;-145.18;100.00;47506.28;5057617;28;20269;-71
2021/12/14 07:08:11;;;;;;;36.50;20.13;;;;;;;-145.18;100.00;47492.59;5066127;28;20036;-71
2021/12/14 07:10:40;;;;;;;36.30;19.20;;;;;;;-145.18;100.00;47490.66;5066223;28;20859;-71
2021/12/14 07:13:18;;;;;;;34.13;20.33;;;;;;;-145.18;100.00;47508.22;5066496;28;20293;-71
2021/12/14 07:15:44;;;;;;;34.63;18.97;;;;;;;-145.18;100.00;47496.50;5065248;28;20281;-71
2021/12/14 07:18:10;;;;;;;33.77;20.23;;;;;;;-145.18;100.00;47492.59;5065454;28;20887;-72
2021/12/14 07:20:46;;;;;;;34.87;19.43;;;;;;;-145.18;100.00;47496.50;5066398;28;20269;-71
2021/12/14 07:23:26;;;;;;;37.03;20.53;;;;;;;-145.18;100.00;47508.22;5067606;28;20406;-71
2021/12/14 07:26:11;;;;;;;34.03;20.33;;;;;;;-145.18;100.00;47508.22;5045678;28;20659;-71
2021/12/14 07:28:42;;;;;;;35.33;19.70;;;;;;;-145.18;100.00;47490.66;5061348;28;20295;-71
2021/12/14 07:31:14;;;;;;;35.47;20.40;;;;;;;-145.18;100.00;47500.41;5062831;28;20279;-71
2021/12/14 07:33:45;;;;;;;34.93;19.50;;;;;;;-145.18;100.00;47512.16;5060908;28;20277;-71
2021/12/14 07:36:13;;;;;;;34.80;19.63;;;;;;;-145.18;100.00;47490.66;5057220;28;20594;-71
2021/12/14 07:38:43;;;;;;;39.87;21.17;;;;;;;-145.18;100.00;47490.66;5068643;28;20335;-71
2021/12/14 07:41:08;;;;;;;39.60;21.50;;;;;;;-145.18;100.00;47496.50;5055319;28;20284;-71
2021/12/14 07:44:11;;;;;;;37.67;19.47;;;;;;;-145.18;100.00;47471.13;5064842;28;20289;-71
2021/12/14 07:59:32;;;;;;;36.35;20.20;;;;;;;-145.18;100.00;47500.41;5097087;27;20853;-71
2021/12/14 08:02:15;;;;;;;38.10;21.03;;;;;;;-145.18;100.00;47494.56;5105812;28;20487;-70
2021/12/14 08:04:44;;;;;;;40.37;20.37;;;;;;;-145.18;100.00;47500.41;5086004;28;20267;-70
2021/12/14 08:07:21;;;;;;;38.87;20.17;;;;;;;-145.18;100.00;47484.78;5086475;28;20296;-71
2021/12/14 08:09:51;;;;;;;36.90;20.30;;;;;;;-145.18;100.00;47498.47;5092194;28;20277;-71
2021/12/14 08:12:39;;;;;;;37.60;20.73;;;;;;;-145.18;100.00;47484.78;5082885;28;20650;-70
2021/12/14 08:15:30;;;;;;;37.03;20.70;;;;;;;-145.18;100.00;47488.69;5087900;28;20269;-71
2021/12/14 08:18:14;;;;;;;36.20;19.67;;;;;;;-145.18;100.00;47496.50;5086511;28;20308;-70
2021/12/14 08:20:57;;;;;;;38.83;20.43;;;;;;;-145.18;100.00;47488.69;5086596;28;20326;-71
2021/12/14 08:23:35;;;;;;;40.30;21.30;;;;;;;-145.18;100.00;47496.50;5086966;28;20289;-71
2021/12/14 08:26:20;;;;;;;42.17;21.63;;;;;;;-145.18;100.00;47480.88;5086126;28;20666;-70
2021/12/14 08:29:00;;;;;;;39.92;21.88;;;;;;;-145.18;100.00;47496.50;5075196;28;20281;-71
2021/12/14 08:31:33;;;;;;;43.10;22.07;;;;;;;-145.18;100.00;47498.47;5066153;28;20115;-71
2021/12/14 08:34:04;;;;;;;39.77;22.47;;;;;;;-145.18;100.00;47473.06;5069120;28;21181;-71
2021/12/14 08:36:36;;;;;;;41.23;20.73;;;;;;;-145.18;100.00;47516.06;5086020;28;20267;-71
2021/12/14 08:39:15;;;;;;;39.47;21.57;;;;;;;-145.18;100.00;47486.75;5095728;28;20276;-71
2021/12/14 08:41:49;;;;;;;44.10;20.93;;;;;;;-145.18;100.00;47488.69;5085394;28;20257;-71
2021/12/14 08:44:20;;;;;;;41.47;20.30;;;;;;;-145.18;100.00;47484.78;5086349;28;20634;-71
2021/12/14 08:46:50;;;;;;;37.43;21.80;;;;;;;-145.18;100.00;47480.88;5085911;28;20277;-70
2021/12/14 08:49:17;;;;;;;42.40;23.23;;;;;;;-145.18;100.00;47484.78;5084059;28;20388;-71
2021/12/14 08:51:46;;;;;;;44.63;22.37;;;;;;;-145.18;100.00;47478.94;5075074;28;20653;-70
2021/12/14 08:54:21;;;;;;;37.50;22.73;;;;;;;-145.18;100.00;47488.69;5074870;28;20285;-70
2021/12/14 08:57:08;;;;;;;;;;;;;;;-145.18;100.00;47465.25;5069303;28;20273;-71
2021/12/14 08:59:35;;;;;;;39.85;21.38;;;;;;;-145.18;100.00;47480.88;5071129;28;19955;-71
2021/12/14 09:02:03;;;;;;;39.33;22.17;;;;;;;-145.18;100.00;47494.56;5072757;28;20501;-72
2021/12/14 09:04:33;;;;;;;43.20;22.60;;;;;;;-145.18;100.00;47480.88;5053657;28;20682;-71
2021/12/14 09:07:04;;;;;;;41.60;22.10;;;;;;;-145.18;100.00;47471.13;5052396;28;20297;-71
2021/12/14 09:09:30;;;;;;;42.83;20.00;;;;;;;-145.18;100.00;47476.97;5067555;28;20266;-71
2021/12/14 09:12:10;;;;;;;39.27;22.47;;;;;;;-145.18;100.00;47486.75;5072040;28;20269;-71
2021/12/14 09:14:37;;;;;;;47.07;23.50;;;;;;;-145.18;100.00;47484.78;5061441;28;20029;-71
2021/12/14 09:17:05;;;;;;;43.07;22.97;;;;;;;-145.18;100.00;47476.97;5051561;28;20305;-71
2021/12/14 09:19:38;;;;;;;45.33;22.97;;;;;;;-145.18;100.00;47478.94;5050798;28;20327;-71
2021/12/14 09:22:09;;;;;;;50.33;24.60;;;;;;;-145.18;100.00;47478.94;5056961;28;20265;-71
2021/12/14 09:24:35;;;;;;;55.00;23.33;;;;;;;-145.18;100.00;47471.13;5089005;28;20272;-71
2021/12/14 09:27:06;;;;;;;40.27;20.27;;;;;;;-145.18;100.00;47461.34;5088701;28;20287;-71
2021/12/14 09:29:33;;;;;;;44.70;21.43;;;;;;;-145.18;100.00;47480.88;5088666;28;20040;-71
2021/12/14 09:32:03;;;;;;;43.63;22.47;;;;;;;-145.18;100.00;47461.34;5088964;28;20280;-71
2021/12/14 09:34:32;;;;;;;44.63;22.47;;;;;;;-145.18;100.00;47471.13;5088323;28;20273;-71
2021/12/14 09:37:01;;;;;;;51.37;23.80;;;;;;;-145.18;100.00;47465.25;5088594;28;20273;-71
2021/12/14 09:39:31;;;;;;;43.93;23.83;;;;;;;-145.18;100.00;47469.16;5088609;28;20359;-71
2021/12/14 09:42:06;;;;;;;40.13;19.70;;;;;;;-145.18;100.00;47457.44;5088815;28;20300;-72
2021/12/14 09:44:33;;;;;;;48.17;24.77;;;;;;;-145.18;100.00;47486.75;5073281;28;20257;-71
2021/12/14 09:47:01;;;;;;;46.10;24.93;;;;;;;-145.18;100.00;47469.16;5088683;28;20036;-71
2021/12/14 09:49:27;;;;;;;46.60;25.73;;;;;;;-145.18;100.00;47471.13;5088854;28;20261;-72
2021/12/14 09:51:57;;;;;;;42.27;20.80;;;;;;;-145.18;100.00;47478.94;5088574;28;20317;-71
2021/12/14 09:54:27;;;;;;;39.73;21.33;;;;;;;-145.18;100.00;47471.13;5088495;28;20492;-71
2021/12/14 09:57:00;;;;;;;48.87;24.03;;;;;;;-145.18;100.00;47457.44;5088347;28;20375;-72
2021/12/14 09:59:27;;;;;;;47.03;25.10;;;;;;;-145.18;100.00;47455.47;5088532;28;20273;-72
2021/12/14 10:02:10;;;;;;;49.67;23.90;;;;;;;-145.18;100.00;47451.56;5085720;28;20982;-71
2021/12/14 10:04:43;;;;;;;53.33;24.73;;;;;;;-145.18;100.00;47459.41;5069141;28;20634;-72
2021/12/14 10:07:09;;;;;;;50.27;26.40;;;;;;;-145.18;100.00;47459.41;5068568;28;20724;-71
2021/12/14 10:09:42;;;;;;;47.70;26.00;;;;;;;-145.18;100.00;47461.34;5067909;28;20314;-71
2021/12/14 10:12:17;;;;;;;45.13;23.63;;;;;;;-145.18;100.00;47449.63;5066275;28;20400;-71
2021/12/14 10:14:50;;;;;;;55.95;28.02;;;;;;;-145.18;100.00;47451.56;5070749;28;20342;-71
2021/12/14 10:17:19;;;;;;;48.27;24.43;;;;;;;-145.18;100.00;47461.34;5078193;28;20036;-71
2021/12/14 10:19:46;;;;;;;53.27;25.67;;;;;;;-145.18;100.00;47465.25;5077518;28;20326;-71
2021/12/14 10:22:24;;;;;;;42.57;22.60;;;;;;;-145.18;100.00;47449.63;5078144;28;20768;-71
2021/12/14 10:24:52;;;;;;;54.80;25.33;;;;;;;-145.18;100.00;47469.16;5078926;28;20403;-71
2021/12/14 10:27:21;;;;;;;57.33;28.70;;;;;;;-145.18;100.00;47461.34;5081238;28;20742;-71
2021/12/14 10:29:47;;;;;;;52.53;27.43;;;;;;;-145.18;100.00;47457.44;5077141;28;20238;-71
2021/12/14 10:32:25;;;;;;;53.97;25.20;;;;;;;-145.18;100.00;47478.94;5081070;28;20269;-71
2021/12/14 10:34:58;;;;;;;53.67;27.73;;;;;;;-145.18;100.00;47459.41;5078098;28;20267;-71
2021/12/14 10:37:37;;;;;;;59.43;23.63;;;;;;;-145.18;100.00;47471.13;5080800;28;21374;-71
2021/12/14 10:43:12;;;;;;;62.13;28.10;;;;;;;-145.18;100.00;47457.44;5052404;28;20269;-71
2021/12/14 10:45:42;;;;;;;59.43;29.30;;;;;;;-145.18;100.00;47453.53;5080206;28;21002;-70
2021/12/14 10:48:07;;;;;;;50.27;24.93;;;;;;;-145.18;100.00;47453.53;5078602;28;20728;-71
2021/12/14 10:50:36;;;;;;;57.80;29.60;;;;;;;-145.18;100.00;47471.13;5078815;28;20776;-71
2021/12/14 10:53:04;;;;;;;54.57;26.97;;;;;;;-145.18;100.00;47453.53;5080146;28;20077;-71
2021/12/14 10:55:39;;;;;;;59.20;27.53;;;;;;;-145.18;100.00;47443.75;5078704;28;20633;-71
2021/12/14 10:58:06;;;;;;;58.38;27.80;;;;;;;-145.18;100.00;47461.34;5076944;28;20261;-71
2021/12/14 11:00:40;;;;;;;57.17;27.43;;;;;;;-145.18;100.00;47439.84;5074595;28;20051;-71
2021/12/14 11:03:15;;;;;;;66.53;30.23;;;;;;;-145.18;100.00;47457.44;5077483;28;20352;-71
2021/12/14 11:05:45;;;;;;;55.88;28.77;;;;;;;-145.18;100.00;47473.06;5080026;28;20779;-70
2021/12/14 11:08:33;;;;;;;60.47;28.07;;;;;;;-145.18;100.00;47437.91;5079493;28;20040;-71
2021/12/14 11:10:59;;;;;;;59.93;29.83;;;;;;;-145.18;100.00;47453.53;5077888;28;20603;-71
2021/12/14 11:13:24;;;;;;;58.10;28.73;;;;;;;-145.18;100.00;47465.25;5076647;28;20277;-71
2021/12/14 11:15:54;;;;;;;65.23;31.07;;;;;;;-145.18;100.00;47453.53;5076972;28;20668;-71
2021/12/14 11:18:24;;;;;;;64.60;30.17;;;;;;;-145.18;100.00;47469.16;5084667;28;20036;-71
2021/12/14 11:21:12;;;;;;;61.77;28.97;;;;;;;-145.18;100.00;47443.75;5083701;28;20282;-70
2021/12/14 11:23:45;;;;;;;65.90;30.43;;;;;;;-145.18;100.00;47449.63;5078916;28;20326;-70
2021/12/14 11:26:27;;;;;;;65.20;30.80;;;;;;;-145.18;100.00;47445.72;5085680;28;20334;-71
2021/12/14 11:28:57;;;;;;;60.10;29.30;;;;;;;-145.18;100.00;47476.97;5084668;28;20279;-70
2021/12/14 11:31:33;;;;;;;63.50;29.00;;;;;;;-145.18;100.00;47445.72;5086828;28;20810;-71
2021/12/14 11:34:03;;;;;;;60.17;29.20;;;;;;;-145.18;100.00;47445.72;5075742;28;20280;-71
2021/12/14 11:36:31;;;;;;;61.93;30.07;;;;;;;-145.18;100.00;47453.53;5070687;28;20273;-71
2021/12/14 11:39:23;;;;;;;67.60;31.27;;;;;;;-145.18;100.00;47461.34;5080805;28;20354;-71
2021/12/14 11:42:02;;;;;;;65.23;30.90;;;;;;;-145.18;100.00;47451.56;5078988;28;20277;-71
2021/12/14 11:44:32;;;;;;;66.53;32.23;;;;;;;-145.18;100.00;47437.91;5076469;28;20289;-71
2021/12/14 11:49:54;;;;;;;74.23;32.53;;;;;;;-145.18;100.00;47434.00;5066697;28;20272;-71
2021/12/14 11:52:50;;;;;;;68.27;32.77;;;;;;;-145.18;100.00;47461.34;5071326;28;20277;-71
2021/12/14 11:55:30;;;;;;;75.70;34.95;;;;;;;-145.18;100.00;47437.91;5079315;28;20875;-71
2021/12/14 11:58:17;;;;;;;73.43;32.07;;;;;;;-145.18;100.00;47455.47;5089651;28;20046;-71
2021/12/14 12:00:54;;;;;;;76.37;33.90;;;;;;;-145.18;100.00;47457.44;5106943;28;20278;-71